Time;durP1;ratioP1;P1;durP2;ratioP2;P2;SDS_P1;SDS_P2;PMS_P1;PMS_P2;Temp;Humidity;BMP_temperature;BMP_pressure;BME280_temperature;BME280_humidity;BME280_pressure;Samples;Min_cycle;Max_cycle;Signal;HPM_P1;HPM_P2
2022/09/10 00:03:36;;;;;;;;;1.50;1.00;;;;;16.74;68.92;100648.53;5058148;28;45605;-83
2022/09/10 00:06:09;;;;;;;;;3.00;2.25;;;;;16.90;68.92;100663.75;5073507;28;48280;-84
2022/09/10 00:08:36;;;;;;;;;2.25;2.00;;;;;16.90;68.78;100674.34;5073067;28;47783;-82
2022/09/10 00:11:07;;;;;;;;;2.00;2.00;;;;;16.81;69.22;100669.13;5055317;28;45794;-83
2022/09/10 00:16:54;;;;;;;;;2.00;1.00;;;;;16.68;69.13;100649.13;5056610;28;46026;-85
2022/09/10 00:19:21;;;;;;;;;2.50;2.00;;;;;16.73;69.48;100661.94;5055175;28;46293;-83
2022/09/10 00:21:48;;;;;;;;;3.00;2.25;;;;;16.62;69.07;100639.16;5055541;28;45558;-83
2022/09/10 00:24:14;;;;;;;;;1.50;1.50;;;;;16.88;69.39;100692.22;5055717;28;45562;-83
2022/09/10 00:26:40;;;;;;;;;4.00;1.50;;;;;16.66;69.67;100666.13;5070774;28;47545;-83
2022/09/10 00:32:27;;;;;;;;;2.00;1.25;;;;;16.73;69.79;100661.94;5057287;28;45704;-83
2022/09/10 00:34:53;;;;;;;;;2.00;2.00;;;;;16.73;69.88;100665.38;5055998;28;45655;-84
2022/09/10 00:37:19;;;;;;;;;1.00;1.00;;;;;16.74;69.71;100659.13;5054658;28;45612;-84
2022/09/10 00:39:44;;;;;;;;;2.00;1.00;;;;;16.72;69.63;100662.91;5054476;28;46077;-84
2022/09/10 00:42:10;;;;;;;;;2.25;2.00;;;;;16.75;70.05;100678.47;5054721;28;45708;-84
2022/09/10 00:44:36;;;;;;;;;3.00;2.00;;;;;16.74;69.80;100675.00;5054913;28;45616;-83
2022/09/10 00:47:03;;;;;;;;;2.00;1.00;;;;;16.74;69.55;100674.16;5054164;28;45718;-85
2022/09/10 00:49:42;;;;;;;;;1.00;1.00;;;;;16.57;69.86;100645.84;5052534;28;46223;-84
2022/09/10 00:52:08;;;;;;;;;3.00;2.00;;;;;16.61;70.16;100649.88;5054488;28;45600;-83
2022/09/10 00:54:37;;;;;;;;;2.00;2.00;;;;;16.72;70.11;100668.19;5054582;28;45556;-82
2022/09/10 01:03:31;;;;;;;;;3.50;1.00;;;;;16.70;69.93;100663.06;5049378;28;45926;-83
2022/09/10 01:05:57;;;;;;;;;2.00;2.00;;;;;16.69;70.12;100661.38;5055615;28;45502;-84
2022/09/10 01:08:49;;;;;;;;;2.00;2.00;;;;;16.55;70.26;100640.69;5071682;28;48602;-84
2022/09/10 01:11:37;;;;;;;;;2.75;2.00;;;;;16.73;69.98;100667.22;5053251;28;45722;-84
2022/09/10 01:14:28;;;;;;;;;1.75;1.75;;;;;16.74;70.05;100660.94;5053584;28;45788;-83
2022/09/10 01:17:02;;;;;;;;;1.00;0.00;;;;;16.43;70.44;100612.75;5054041;28;45714;-83
2022/09/10 01:19:27;;;;;;;;;3.75;2.00;;;;;16.70;70.20;100655.13;5052028;28;46801;-83
2022/09/10 01:22:14;;;;;;;;;2.75;2.00;;;;;16.69;70.15;100650.78;5052149;28;48239;-84
2022/09/10 01:24:54;;;;;;;;;2.25;1.75;;;;;16.68;70.64;100667.66;5057125;28;45660;-83
2022/09/10 01:30:47;;;;;;;;;2.00;2.00;;;;;16.70;69.89;100662.22;5057019;28;45696;-84
2022/09/10 01:33:28;;;;;;;;;3.00;2.00;;;;;16.69;70.52;100668.47;5058368;28;46004;-83
2022/09/10 01:36:01;;;;;;;;;2.75;2.00;;;;;16.69;70.35;100673.78;5059848;28;45471;-82
2022/09/10 01:38:30;;;;;;;;;2.25;2.25;;;;;16.66;70.52;100674.91;5060645;28;45554;-82
2022/09/10 01:40:56;;;;;;;;;2.25;1.25;;;;;16.62;70.21;100670.91;5059069;28;45665;-83
2022/09/10 01:46:58;;;;;;;;;5.00;2.75;;;;;16.61;70.19;100686.91;5058116;28;45745;-85
2022/09/10 01:49:48;;;;;;;;;2.75;1.75;;;;;16.59;70.88;100668.53;5056574;28;45853;-85
2022/09/10 01:52:24;;;;;;;;;2.00;2.00;;;;;16.59;70.57;100668.53;5055651;28;47599;-82
2022/09/10 01:55:16;;;;;;;;;2.00;1.25;;;;;16.50;70.58;100663.25;5057056;28;46275;-83
2022/09/10 01:57:49;;;;;;;;;1.50;1.00;;;;;16.59;70.80;100676.47;5057147;28;45530;-83
2022/09/10 02:00:20;;;;;;;;;2.00;1.25;;;;;16.50;70.67;100665.91;5055876;28;45764;-84
2022/09/10 02:02:56;;;;;;;;;3.00;2.00;;;;;16.29;70.66;100621.19;5059075;28;45700;-83
2022/09/10 02:05:25;;;;;;;;;2.75;2.00;;;;;16.61;70.57;100679.81;5058962;28;46181;-82
2022/09/10 02:08:32;;;;;;;;;1.50;1.00;;;;;16.07;70.71;100580.06;5065596;28;45711;-86
2022/09/10 02:11:57;;;;;;;;;3.50;3.00;;;;;16.03;70.62;100559.38;5064297;28;45884;-85
2022/09/10 02:14:23;;;;;;;;;2.00;2.00;;;;;16.63;70.41;100680.47;4997318;28;46679;-84
2022/09/10 02:20:08;;;;;;;;;3.00;2.00;;;;;16.41;70.77;100635.03;4982731;28;45547;-83
2022/09/10 02:22:35;;;;;;;;;3.00;1.75;;;;;16.59;70.84;100676.47;4997006;28;45806;-85
2022/09/10 02:25:02;;;;;;;;;2.25;2.25;;;;;16.15;70.73;100595.19;4997694;28;45677;-85
2022/09/10 02:27:28;;;;;;;;;1.50;1.00;;;;;16.32;70.60;100634.94;4997304;28;46459;-85
2022/09/10 02:33:15;;;;;;;;;2.00;2.00;;;;;15.93;70.68;100583.16;4996859;28;45615;-83
2022/09/10 02:35:42;;;;;;;;;4.50;2.25;;;;;16.08;70.70;100602.06;4977176;28;47942;-84
2022/09/10 02:38:07;;;;;;;;;2.25;2.00;;;;;16.60;70.67;100685.25;4993565;28;46165;-83
2022/09/10 02:40:33;;;;;;;;;2.00;2.00;;;;;16.31;70.66;100635.06;4977233;28;45867;-83
2022/09/10 02:42:58;;;;;;;;;4.50;3.00;;;;;16.21;70.70;100613.13;4994303;28;45578;-85
2022/09/10 02:48:46;;;;;;;;;1.75;1.00;;;;;16.50;70.61;100647.38;4996987;28;45722;-84
2022/09/10 02:51:11;;;;;;;;;2.00;1.00;;;;;16.54;70.90;100654.03;5016843;28;45492;-86
2022/09/10 02:53:37;;;;;;;;;1.00;0.75;;;;;16.63;70.88;100672.53;5060152;28;45584;-83
2022/09/10 02:56:03;;;;;;;;;3.25;2.00;;;;;16.46;71.03;100643.38;5061109;28;45890;-83
2022/09/10 02:58:32;;;;;;;;;2.00;1.00;;;;;16.21;70.75;100602.53;5057187;28;46964;-86
2022/09/10 03:01:15;;;;;;;;;2.50;1.00;;;;;16.58;70.85;100674.75;5071835;28;45700;-83
2022/09/10 03:03:41;;;;;;;;;3.00;2.00;;;;;16.53;70.71;100660.31;5056804;28;45756;-86
2022/09/10 03:06:08;;;;;;;;;2.00;1.00;;;;;16.48;70.39;100649.34;5057940;28;46718;-83
2022/09/10 03:08:34;;;;;;;;;4.75;2.00;;;;;16.69;70.84;100681.72;5056319;28;46448;-83
2022/09/10 03:11:00;;;;;;;;;3.00;3.00;;;;;16.59;70.56;100673.81;5056712;28;45767;-85
2022/09/10 03:13:26;;;;;;;;;1.50;1.00;;;;;16.49;70.68;100648.34;5057423;28;45565;-84
2022/09/10 03:15:57;;;;;;;;;5.25;2.75;;;;;16.73;70.25;100688.41;5056656;28;46490;-85
2022/09/10 03:18:24;;;;;;;;;2.50;2.25;;;;;16.73;70.50;100694.50;5054658;28;47119;-83
2022/09/10 03:20:50;;;;;;;;;3.00;3.00;;;;;16.58;70.34;100664.19;5056099;28;45646;-84
2022/09/10 03:23:16;;;;;;;;;3.50;2.50;;;;;16.59;70.31;100655.31;5055768;28;45738;-85
2022/09/10 03:25:42;;;;;;;;;4.00;2.25;;;;;16.58;70.50;100648.31;5055377;28;45521;-85
2022/09/10 03:28:08;;;;;;;;;4.00;3.00;;;;;16.51;70.29;100630.53;5056324;28;45585;-85
2022/09/10 03:33:56;;;;;;;;;3.00;2.00;;;;;16.64;70.54;100650.41;5056689;28;45573;-85
2022/09/10 03:36:22;;;;;;;;;4.00;2.75;;;;;16.68;70.36;100662.34;5055433;28;45699;-85
2022/09/10 03:38:47;;;;;;;;;2.00;2.00;;;;;16.76;70.15;100675.69;5071065;28;47016;-85
2022/09/10 03:41:13;;;;;;;;;2.00;2.00;;;;;16.85;70.01;100689.84;5074622;28;45725;-83
2022/09/10 03:43:38;;;;;;;;;2.50;2.25;;;;;16.65;70.07;100651.25;5061204;28;45476;-82
2022/09/10 03:46:05;;;;;;;;;1.25;1.00;;;;;16.87;69.87;100681.75;5058109;28;46483;-85
2022/09/10 03:48:31;;;;;;;;;2.75;2.00;;;;;16.79;70.15;100675.38;5057738;28;45754;-85
2022/09/10 03:50:56;;;;;;;;;4.00;3.00;;;;;16.76;70.03;100675.69;5056051;28;45658;-84
2022/09/10 03:53:22;;;;;;;;;2.25;2.00;;;;;16.52;70.05;100627.72;5072325;28;45572;-84
2022/09/10 03:55:49;;;;;;;;;1.75;1.75;;;;;16.86;69.80;100685.38;5070831;28;47411;-85
2022/09/10 03:58:16;;;;;;;;;2.50;2.00;;;;;16.87;70.00;100687.06;5055127;28;46033;-84
2022/09/10 04:04:04;;;;;;;;;4.00;3.00;;;;;16.88;70.05;100684.28;5044048;28;45678;-85
2022/09/10 04:06:33;;;;;;;;;2.50;2.00;;;;;16.82;69.72;100674.28;5057973;28;45751;-84
2022/09/10 04:09:00;;;;;;;;;1.75;0.50;;;;;16.83;69.55;100678.59;5059992;28;46416;-87
2022/09/10 04:11:26;;;;;;;;;4.00;2.25;;;;;16.74;69.80;100660.94;5063605;28;45472;-84
2022/09/10 04:13:55;;;;;;;;;4.00;2.00;;;;;16.75;69.64;100666.09;5064976;28;45342;-83
2022/09/10 04:16:22;;;;;;;;;5.00;2.25;;;;;16.67;69.80;100644.00;5070124;28;46897;-85
2022/09/10 04:18:48;;;;;;;;;3.25;2.25;;;;;16.81;70.00;100666.47;5085425;28;46841;-83
2022/09/10 04:21:13;;;;;;;;;4.25;2.00;;;;;16.84;69.60;100668.84;5068751;28;45568;-82
2022/09/10 04:23:41;;;;;;;;;2.25;1.25;;;;;16.63;69.81;100626.72;5068137;28;45522;-84
2022/09/10 04:26:11;;;;;;;;;3.75;2.50;;;;;16.92;69.19;100682.16;5080923;28;47383;-86
2022/09/10 04:28:37;;;;;;;;;2.75;2.00;;;;;16.98;69.25;100700.94;5060664;28;45863;-86
2022/09/10 04:34:24;;;;;;;;;4.25;3.50;;;;;16.68;69.30;100665.00;5057038;28;45769;-84
2022/09/10 04:36:49;;;;;;;;;1.75;1.00;;;;;16.74;69.58;100668.88;5053565;28;48375;-85
2022/09/10 04:39:15;;;;;;;;;2.00;2.00;;;;;16.50;69.85;100632.34;5054658;28;45774;-83
2022/09/10 04:41:41;;;;;;;;;3.00;3.00;;;;;16.78;70.20;100676.41;5056254;28;45677;-83
2022/09/10 04:44:07;;;;;;;;;2.75;1.50;;;;;16.61;69.55;100650.72;5058003;28;45820;-85
2022/09/10 04:46:32;;;;;;;;;2.75;2.00;;;;;16.92;70.33;100696.22;5070952;28;48289;-84
2022/09/10 04:48:59;;;;;;;;;2.75;2.00;;;;;16.81;69.93;100685.84;5054681;28;46576;-84
2022/09/10 04:51:24;;;;;;;;;3.00;2.00;;;;;16.86;69.68;100698.63;5054758;28;45608;-84
2022/09/10 04:53:50;;;;;;;;;3.75;2.00;;;;;16.90;70.14;100698.16;5055682;28;45696;-84
2022/09/10 04:56:16;;;;;;;;;2.50;2.00;;;;;16.90;69.77;100703.47;5056082;28;46278;-84
2022/09/10 04:58:42;;;;;;;;;4.00;2.00;;;;;16.73;69.65;100675.97;5057900;28;46606;-85
2022/09/10 05:04:29;;;;;;;;;2.00;1.25;;;;;16.79;69.98;100679.84;5053257;28;45865;-75
2022/09/10 05:06:56;;;;;;;;;1.50;1.00;;;;;16.85;69.71;100692.50;5057000;28;45579;-76
2022/09/10 05:09:22;;;;;;;;;3.00;2.00;;;;;16.88;70.00;100709.91;5057421;28;45911;-79
2022/09/10 05:11:48;;;;;;;;;3.75;1.75;;;;;16.90;69.82;100694.69;5057592;28;45901;-75
2022/09/10 05:14:14;;;;;;;;;3.75;2.00;;;;;16.83;69.51;100701.56;5057722;28;45795;-76
2022/09/10 05:20:04;;;;;;;;;2.25;1.25;;;;;16.90;70.15;100724.63;5057344;28;45678;-76
2022/09/10 05:22:29;;;;;;;;;3.50;2.00;;;;;16.90;69.97;100723.81;5057081;28;45680;-75
2022/09/10 05:24:55;;;;;;;;;3.75;2.75;;;;;16.91;70.11;100734.25;5057327;28;45605;-76
2022/09/10 05:27:20;;;;;;;;;2.00;2.00;;;;;16.87;69.83;100710.88;5057148;28;45765;-76
2022/09/10 05:29:46;;;;;;;;;3.25;1.75;;;;;16.89;69.97;100711.56;5056593;28;45719;-76
2022/09/10 05:32:12;;;;;;;;;4.00;2.00;;;;;16.95;70.14;100734.81;5057113;28;45557;-75
2022/09/10 05:34:38;;;;;;;;;2.50;2.00;;;;;17.04;69.71;100733.91;5057036;28;45814;-74
2022/09/10 05:37:04;;;;;;;;;1.75;1.00;;;;;17.06;69.81;100732.78;5058246;28;46503;-75
2022/09/10 05:39:31;;;;;;;;;2.00;1.00;;;;;17.06;70.00;100722.19;5058160;28;46110;-78
2022/09/10 05:41:56;;;;;;;;;1.50;1.50;;;;;17.11;69.37;100730.50;5059285;28;45710;-80
2022/09/10 05:44:22;;;;;;;;;1.00;1.00;;;;;17.04;69.22;100720.69;5057515;28;45625;-75
2022/09/10 05:50:10;;;;;;;;;5.00;3.00;;;;;17.11;69.16;100737.66;5057162;28;46033;-75
2022/09/10 05:52:39;;;;;;;;;2.00;2.00;;;;;17.08;69.53;100740.56;5059505;28;45461;-77
2022/09/10 05:55:05;;;;;;;;;2.00;2.00;;;;;17.09;69.18;100743.09;5056100;28;45742;-80
2022/09/10 05:57:30;;;;;;;;;3.25;2.00;;;;;17.10;69.35;100751.88;5057211;28;46603;-77
2022/09/10 05:59:56;;;;;;;;;4.25;3.00;;;;;17.00;69.30;100730.75;5056792;28;46518;-83
2022/09/10 06:02:21;;;;;;;;;3.00;2.00;;;;;17.04;69.41;100748.00;5056357;28;45561;-79
2022/09/10 06:04:47;;;;;;;;;2.00;2.00;;;;;16.88;69.10;100717.84;5055682;28;45926;-80
2022/09/10 06:07:12;;;;;;;;;3.25;1.75;;;;;17.12;69.07;100765.78;5055877;28;46631;-81
2022/09/10 06:09:38;;;;;;;;;2.00;2.00;;;;;17.07;69.45;100752.16;5054264;28;46443;-77
2022/09/10 06:12:05;;;;;;;;;2.00;1.75;;;;;16.88;69.53;100723.13;5055695;28;45937;-80
2022/09/10 06:14:31;;;;;;;;;2.75;2.75;;;;;17.17;69.09;100768.81;5055865;28;45512;-80
2022/09/10 06:20:19;;;;;;;;;4.00;3.00;;;;;17.24;69.24;100792.88;5055047;28;45646;-76
2022/09/10 06:22:44;;;;;;;;;1.75;1.75;;;;;17.26;69.29;100794.44;5055726;28;45772;-80
2022/09/10 06:25:10;;;;;;;;;1.75;1.00;;;;;17.29;69.26;100791.47;5054487;28;45515;-77
2022/09/10 06:27:35;;;;;;;;;4.50;3.00;;;;;17.27;68.78;100777.56;5055826;28;45590;-77
2022/09/10 06:30:01;;;;;;;;;2.25;2.00;;;;;17.20;69.08;100774.66;5057677;28;45711;-82
2022/09/10 06:35:54;;;;;;;;;2.25;1.25;;;;;17.33;68.83;100776.94;5057145;28;45557;-82
2022/09/10 06:38:19;;;;;;;;;1.50;1.00;;;;;17.40;68.58;100798.38;5056410;28;47622;-83
2022/09/10 06:40:53;;;;;;;;;2.25;2.00;;;;;17.43;68.50;100795.44;5055456;28;46141;-80
2022/09/10 06:43:22;;;;;;;;;1.25;1.25;;;;;17.45;68.54;100796.13;5055398;28;45711;-79
2022/09/10 06:45:48;;;;;;;;;2.00;2.00;;;;;17.41;68.35;100789.47;5055057;28;45680;-82
2022/09/10 06:48:17;;;;;;;;;3.00;1.75;;;;;17.40;68.70;100793.09;5053296;28;46836;-76
2022/09/10 06:50:53;;;;;;;;;2.50;2.50;;;;;17.49;68.16;100798.31;5070849;28;46411;-80
2022/09/10 06:53:21;;;;;;;;;2.00;1.00;;;;;17.48;68.12;100796.69;5055377;28;45846;-78
2022/09/10 06:55:48;;;;;;;;;3.50;1.25;;;;;17.49;68.23;100805.47;5054887;28;45566;-79
2022/09/10 06:58:14;;;;;;;;;3.00;2.00;;;;;17.52;68.46;100805.97;5053065;28;47137;-77
2022/09/10 07:00:40;;;;;;;;;1.75;1.50;;;;;17.54;68.44;100800.53;5054909;28;46165;-75
2022/09/10 07:03:05;;;;;;;;;2.00;2.00;;;;;17.44;68.00;100778.56;5055045;28;45550;-78
2022/09/10 07:05:34;;;;;;;;;3.00;3.00;;;;;17.58;67.90;100816.00;5055352;28;46165;-76
2022/09/10 07:08:00;;;;;;;;;2.50;2.00;;;;;17.56;67.86;100803.84;5055176;28;45664;-78
2022/09/10 07:10:27;;;;;;;;;3.00;2.00;;;;;17.60;67.83;100818.50;5054903;28;46542;-76
2022/09/10 07:12:53;;;;;;;;;1.00;1.00;;;;;17.63;68.20;100820.88;5055312;28;45663;-77
2022/09/10 07:15:18;;;;;;;;;3.00;2.00;;;;;17.62;68.17;100829.78;5054972;28;45658;-76
2022/09/10 07:21:11;;;;;;;;;2.00;2.00;;;;;17.47;67.60;100818.00;5054308;28;45783;-77
2022/09/10 07:23:39;;;;;;;;;3.00;1.75;;;;;17.57;67.81;100821.44;5054515;28;45698;-78
2022/09/10 07:26:10;;;;;;;;;1.75;1.75;;;;;17.62;67.85;100824.50;5055007;28;45756;-80
2022/09/10 07:28:36;;;;;;;;;2.50;2.00;;;;;17.57;67.61;100821.44;5054573;28;46308;-78
2022/09/10 07:31:19;;;;;;;;;1.50;1.00;;;;;17.63;68.20;100830.63;5052778;28;46520;-76
2022/09/10 07:33:46;;;;;;;;;4.00;2.75;;;;;17.66;67.74;100828.50;5054352;28;45616;-78
2022/09/10 07:36:11;;;;;;;;;3.00;2.75;;;;;17.72;67.78;100837.69;5054632;28;45765;-76
2022/09/10 07:38:37;;;;;;;;;3.25;2.50;;;;;17.70;67.50;100826.41;5054093;28;46588;-79
2022/09/10 07:41:04;;;;;;;;;1.50;1.00;;;;;17.77;68.01;100838.91;5054291;28;45689;-78
2022/09/10 07:43:30;;;;;;;;;4.00;2.50;;;;;17.79;67.50;100825.50;5054517;28;45800;-81
2022/09/10 07:45:55;;;;;;;;;2.00;2.00;;;;;17.83;67.62;100834.81;5054520;28;45827;-77
2022/09/10 07:48:22;;;;;;;;;5.50;3.50;;;;;17.87;67.51;100839.66;5053625;28;46792;-79
2022/09/10 07:50:47;;;;;;;;;2.25;2.25;;;;;17.93;67.44;100843.53;5053681;28;46390;-77
2022/09/10 07:53:15;;;;;;;;;2.00;2.00;;;;;17.98;67.68;100844.75;5054416;28;46219;-78
2022/09/10 07:55:40;;;;;;;;;3.00;2.00;;;;;17.88;67.57;100835.19;5054777;28;45894;-82
2022/09/10 07:58:06;;;;;;;;;3.00;1.00;;;;;18.01;67.16;100860.38;5054172;28;46400;-80
2022/09/10 08:00:31;;;;;;;;;1.75;1.75;;;;;17.97;67.05;100848.41;5054009;28;45796;-78
2022/09/10 08:06:45;;;;;;;;;3.00;2.25;;;;;18.02;66.91;100856.75;5047377;28;46912;-83
2022/09/10 08:09:10;;;;;;;;;3.00;2.00;;;;;17.96;67.35;100859.16;5054564;28;45843;-81
2022/09/10 08:11:39;;;;;;;;;3.00;2.00;;;;;17.93;67.37;100862.09;5054489;28;46177;-81
2022/09/10 08:14:04;;;;;;;;;1.75;1.75;;;;;17.88;67.34;100845.81;5054672;28;45622;-80
2022/09/10 08:16:29;;;;;;;;;3.50;2.75;;;;;18.00;67.12;100871.13;5054008;28;45478;-82
2022/09/10 08:18:59;;;;;;;;;4.00;3.00;;;;;18.01;67.34;100875.44;5054994;28;45734;-80
2022/09/10 08:21:24;;;;;;;;;2.00;1.25;;;;;18.02;67.15;100877.13;5054894;28;46202;-77
2022/09/10 08:23:55;;;;;;;;;2.00;2.00;;;;;18.03;67.47;100870.81;5053597;28;45767;-78
2022/09/10 08:26:25;;;;;;;;;3.00;2.75;;;;;17.95;66.62;100858.31;5053569;28;45775;-83
2022/09/10 08:28:51;;;;;;;;;4.50;3.00;;;;;17.98;66.91;100857.16;5051854;28;46386;-82
2022/09/10 08:31:17;;;;;;;;;3.50;3.00;;;;;18.04;66.78;100864.53;5053644;28;46339;-80
2022/09/10 08:33:48;;;;;;;;;3.50;3.50;;;;;18.08;66.82;100870.38;5057262;28;45656;-81
2022/09/10 08:36:15;;;;;;;;;4.00;3.25;;;;;18.17;67.19;100874.75;5057572;28;45611;-81
2022/09/10 08:38:42;;;;;;;;;3.00;3.00;;;;;18.22;66.86;100868.03;5057688;28;45677;-80
2022/09/10 08:41:24;;;;;;;;;9.00;8.25;;;;;18.26;66.95;100892.41;5060325;28;47093;-79
2022/09/10 08:44:08;;;;;;;;;5.25;5.00;;;;;18.31;66.97;100883.03;5061751;28;46005;-80
2022/09/10 08:46:43;;;;;;;;;3.50;3.00;;;;;18.34;66.33;100882.72;5060963;28;45567;-81
2022/09/10 08:49:23;;;;;;;;;5.00;3.75;;;;;18.44;66.80;100885.28;5060814;28;46647;-81
2022/09/10 08:51:55;;;;;;;;;4.00;4.00;;;;;18.44;66.36;100880.00;5056045;28;46437;-79
2022/09/10 08:54:32;;;;;;;;;5.75;5.00;;;;;18.42;66.36;100880.13;5057037;28;45656;-81
2022/09/10 08:57:00;;;;;;;;;3.25;2.50;;;;;18.50;65.80;100894.47;5057452;28;45586;-81
2022/09/10 08:59:32;;;;;;;;;3.50;3.25;;;;;18.49;65.97;100896.28;5057138;28;45615;-79
2022/09/10 09:02:10;;;;;;;;;3.00;2.75;;;;;18.41;66.29;100886.41;5056173;28;46069;-79
2022/09/10 09:04:44;;;;;;;;;3.25;2.00;;;;;18.33;65.99;100882.88;5056293;28;45884;-79
2022/09/10 09:07:15;;;;;;;;;2.75;2.50;;;;;18.33;65.90;100898.78;5056593;28;45516;-77
2022/09/10 09:09:41;;;;;;;;;3.00;2.25;;;;;18.35;66.69;100904.78;5056380;28;46394;-79
2022/09/10 09:12:31;;;;;;;;;2.25;2.00;;;;;18.34;66.75;100909.25;5056361;28;47092;-80
2022/09/10 09:14:59;;;;;;;;;3.00;2.50;;;;;18.34;67.07;100911.06;5056447;28;45739;-75
2022/09/10 09:17:43;;;;;;;;;2.25;2.25;;;;;18.34;66.80;100911.06;5056221;28;45623;-81
2022/09/10 09:20:17;;;;;;;;;3.00;3.00;;;;;18.36;66.98;100919.69;5056187;28;46464;-76
2022/09/10 09:22:51;;;;;;;;;3.00;2.00;;;;;18.35;67.32;100915.41;5056222;28;47398;-75
2022/09/10 09:25:45;;;;;;;;;3.75;3.00;;;;;18.34;67.04;100911.06;5056176;28;45719;-81
2022/09/10 09:28:20;;;;;;;;;4.00;3.00;;;;;18.29;67.38;100921.31;5033579;28;45945;-77
2022/09/10 09:30:48;;;;;;;;;3.25;2.50;;;;;18.25;67.74;100914.63;5033754;28;47828;-77
2022/09/10 09:33:21;;;;;;;;;2.00;2.00;;;;;18.23;67.42;100920.09;5034102;28;46008;-81
2022/09/10 09:35:46;;;;;;;;;3.75;3.00;;;;;18.20;68.05;100927.50;5034309;28;46080;-77
2022/09/10 09:38:22;;;;;;;;;3.50;3.00;;;;;18.10;68.01;100916.97;5033600;28;45705;-80
2022/09/10 09:40:56;;;;;;;;;2.25;2.25;;;;;18.19;68.31;100917.91;5033642;28;46853;-81
2022/09/10 09:43:22;;;;;;;;;3.00;2.25;;;;;18.27;68.34;100929.41;5015840;28;47329;-77
2022/09/10 09:45:49;;;;;;;;;3.00;3.00;;;;;18.25;68.62;100922.56;5033524;28;45726;-80
2022/09/10 09:48:17;;;;;;;;;2.00;2.00;;;;;18.17;68.54;100930.47;5032743;28;45875;-81
2022/09/10 09:50:46;;;;;;;;;2.50;2.50;;;;;18.10;69.20;100919.63;5033426;28;46301;-81
2022/09/10 09:53:19;;;;;;;;;2.00;2.00;;;;;18.17;69.24;100939.25;5033211;28;46218;-79
2022/09/10 09:55:59;;;;;;;;;4.00;4.00;;;;;18.11;69.74;100929.25;5033027;28;45617;-79
2022/09/10 09:58:26;;;;;;;;;4.00;4.00;;;;;18.18;69.38;100938.28;5017760;28;45791;-80
2022/09/10 10:00:54;;;;;;;;;3.50;2.25;;;;;18.17;69.35;100935.78;5033716;28;46916;-79
2022/09/10 10:03:24;;;;;;;;;3.00;3.00;;;;;18.16;69.43;100939.41;5016586;28;46235;-81
2022/09/10 10:05:50;;;;;;;;;3.00;3.00;;;;;18.23;69.32;100945.78;5044570;28;45689;-79
2022/09/10 10:08:30;;;;;;;;;4.75;3.50;;;;;18.24;69.34;100944.81;5055306;28;45877;-79
2022/09/10 10:10:57;;;;;;;;;3.00;3.00;;;;;18.22;69.35;100950.25;5056426;28;46631;-79
2022/09/10 10:13:23;;;;;;;;;4.00;3.00;;;;;18.12;69.14;100928.25;5056050;28;45814;-81
2022/09/10 10:15:49;;;;;;;;;4.00;3.00;;;;;18.27;69.56;100940.03;5055922;28;45935;-77
2022/09/10 10:18:20;;;;;;;;;3.25;3.25;;;;;18.29;69.09;100948.69;5055224;28;45746;-77
2022/09/10 10:20:47;;;;;;;;;2.75;2.75;;;;;18.32;69.37;100950.19;5055229;28;45753;-79
2022/09/10 10:23:39;;;;;;;;;3.25;3.00;;;;;18.30;69.39;100936.25;5055321;28;45991;-76
2022/09/10 10:26:42;;;;;;;;;3.00;3.00;;;;;18.33;69.44;100963.31;5054610;27;45630;-75
2022/09/10 10:29:19;;;;;;;;;4.75;4.25;;;;;18.28;69.31;100956.78;5052405;28;45833;-76
2022/09/10 10:31:49;;;;;;;;;4.25;4.25;;;;;18.26;70.08;100951.63;5052531;28;46539;-76
2022/09/10 10:34:35;;;;;;;;;3.50;3.25;;;;;18.27;69.83;100955.09;5052530;28;46741;-76
2022/09/10 10:37:33;;;;;;;;;3.50;3.00;;;;;18.20;70.52;100951.38;5052537;28;45708;-78
2022/09/10 10:40:21;;;;;;;;;4.75;4.00;;;;;18.20;70.30;100951.38;5052630;28;46008;-78
2022/09/10 10:43:07;;;;;;;;;4.25;4.00;;;;;18.17;70.67;100955.16;5052185;28;46505;-77
2022/09/10 10:45:46;;;;;;;;;4.00;3.00;;;;;18.14;70.83;100950.16;5052350;28;47147;-79
2022/09/10 10:51:49;;;;;;;;;4.75;4.00;;;;;18.10;71.63;100948.78;5052496;28;45826;-79
2022/09/10 10:54:51;;;;;;;;;5.00;5.00;;;;;18.11;72.34;100954.94;5052519;28;45672;-78
2022/09/10 10:58:08;;;;;;;;;5.25;5.25;;;;;18.07;72.71;100948.25;5052321;28;46278;-81
2022/09/10 11:00:45;;;;;;;;;4.50;3.75;;;;;18.03;72.19;100945.03;5040053;28;45878;-78
2022/09/10 11:06:39;;;;;;;;;5.00;3.75;;;;;17.99;72.88;100949.81;5040541;28;46173;-79
2022/09/10 11:09:21;;;;;;;;;5.25;4.50;;;;;18.04;72.83;100946.72;5054158;28;45938;-79
2022/09/10 11:12:05;;;;;;;;;4.00;3.50;;;;;18.09;72.71;100946.28;5054570;28;46055;-78
2022/09/10 11:14:41;;;;;;;;;5.00;4.00;;;;;18.13;72.29;100950.31;5054561;28;45582;-76
2022/09/10 11:23:56;;;;;;;;;4.00;4.00;;;;;18.43;71.90;100934.03;5054746;28;45701;-77
2022/09/10 11:26:27;;;;;;;;;4.00;4.00;;;;;18.49;71.89;100927.28;5054603;28;45527;-79
2022/09/10 11:29:12;;;;;;;;;6.00;4.25;;;;;18.51;71.58;100926.16;5053788;28;46795;-79
2022/09/10 11:31:41;;;;;;;;;4.00;4.00;;;;;18.65;71.02;100935.44;5054528;28;45814;-77
2022/09/10 11:34:21;;;;;;;;;3.00;3.00;;;;;18.70;71.04;100933.16;5054422;28;45653;-79
2022/09/10 11:37:13;;;;;;;;;5.00;5.00;;;;;18.80;70.99;100940.03;5054282;28;45570;-77
2022/09/10 11:39:45;;;;;;;;;4.75;4.75;;;;;18.87;71.00;100934.94;5054574;28;45628;-77
2022/09/10 11:42:18;;;;;;;;;6.00;5.00;;;;;18.92;71.17;100927.34;5054243;28;46613;-76
2022/09/10 11:44:43;;;;;;;;;5.50;5.00;;;;;19.00;70.21;100929.25;5054188;28;45737;-78
2022/09/10 11:47:23;;;;;;;;;3.50;3.50;;;;;19.03;70.09;100931.56;5054195;28;45678;-79
2022/09/10 11:49:57;;;;;;;;;5.25;4.50;;;;;19.02;70.18;100924.59;5054100;28;45640;-79
2022/09/10 11:52:24;;;;;;;;;6.00;4.50;;;;;19.12;70.01;100930.63;5053785;28;46367;-81
2022/09/10 11:54:51;;;;;;;;;6.00;5.00;;;;;19.15;69.52;100933.00;5053629;28;45719;-78
2022/09/10 11:57:48;;;;;;;;;4.50;4.50;;;;;19.19;68.66;100927.19;5053559;28;45542;-80
2022/09/10 12:00:18;;;;;;;;;4.00;3.00;;;;;19.25;69.05;100931.91;5053368;28;46868;-78
2022/09/10 12:06:12;;;;;;;;;3.75;3.00;;;;;19.50;67.64;100932.03;5053259;28;45514;-80
2022/09/10 12:08:55;;;;;;;;;4.00;3.00;;;;;19.64;67.70;100931.47;5053336;28;45625;-79
2022/09/10 12:11:36;;;;;;;;;4.00;4.00;;;;;19.74;67.39;100920.69;5053647;28;46858;-79
2022/09/10 12:14:07;;;;;;;;;5.75;4.00;;;;;19.88;67.02;100920.06;5069208;28;47081;-80
2022/09/10 12:16:45;;;;;;;;;3.00;2.00;;;;;20.01;66.90;100928.44;5053557;28;45783;-79
2022/09/10 12:22:40;;;;;;;;;4.75;4.75;;;;;20.16;65.88;100913.50;5053152;28;46183;-78
2022/09/10 12:25:24;;;;;;;;;6.00;5.00;;;;;20.26;65.02;100919.50;5053143;28;46327;-78
2022/09/10 12:27:57;;;;;;;;;4.00;4.00;;;;;20.40;64.84;100934.03;5053011;28;45579;-78
2022/09/10 12:30:29;;;;;;;;;2.50;2.50;;;;;20.46;64.41;100931.53;5053484;28;45665;-79
2022/09/10 12:32:59;;;;;;;;;3.00;3.00;;;;;20.51;64.22;100921.22;5053382;28;45503;-78
2022/09/10 12:35:34;;;;;;;;;4.00;3.00;;;;;20.59;64.13;100930.22;5053182;28;45720;-77
2022/09/10 12:38:38;;;;;;;;;3.25;3.00;;;;;20.66;63.66;100924.06;5052645;28;45716;-77
2022/09/10 12:41:30;;;;;;;;;2.75;2.75;;;;;20.68;63.11;100926.53;5053064;28;45842;-77
2022/09/10 12:43:57;;;;;;;;;2.00;2.00;;;;;20.73;62.61;100924.25;5052943;28;46905;-77
2022/09/10 12:46:24;;;;;;;;;2.25;2.25;;;;;20.72;62.55;100918.09;5053089;28;46597;-78
2022/09/10 12:48:53;;;;;;;;;2.00;2.00;;;;;20.82;61.89;100926.72;5052601;28;45762;-79
2022/09/10 12:51:18;;;;;;;;;1.25;0.75;;;;;20.84;61.64;100927.38;5053233;28;45555;-79
2022/09/10 12:54:02;;;;;;;;;2.00;2.00;;;;;20.90;61.56;100932.03;5053015;28;46606;-77
2022/09/10 12:56:46;;;;;;;;;1.50;1.50;;;;;20.97;61.39;100918.88;5053035;28;45928;-75
2022/09/10 12:59:49;;;;;;;;;0.75;0.75;;;;;21.00;61.30;100926.53;5052937;28;45654;-77
2022/09/10 13:02:36;;;;;;;;;1.50;1.50;;;;;21.01;60.93;100919.38;5052731;28;45777;-79
2022/09/10 13:05:24;;;;;;;;;1.25;1.25;;;;;21.06;60.19;100920.53;5052408;28;46352;-77
2022/09/10 13:08:12;;;;;;;;;0.50;0.50;;;;;21.13;59.94;100923.34;5051703;28;46688;-78
2022/09/10 13:10:39;;;;;;;;;1.50;1.50;;;;;21.14;59.76;100922.34;5053506;28;45619;-77